Time;durP1;ratioP1;P1;durP2;ratioP2;P2;SDS_P1;SDS_P2;PMS_P1;PMS_P2;Temp;Humidity;BMP_temperature;BMP_pressure;BME280_temperature;BME280_humidity;BME280_pressure;Samples;Min_cycle;Max_cycle;Signal;HPM_P1;HPM_P2
2021/01/09 00:00:00;;;;;;;21.80;14.30;;;;;;;9.40;36.35;102471.59;5053887;28;20029;-77
2021/01/09 00:02:26;;;;;;;20.33;14.80;;;;;;;9.44;36.78;102486.34;5053950;28;20028;-76
2021/01/09 00:04:51;;;;;;;21.07;13.57;;;;;;;9.48;36.58;102480.38;5053865;28;20375;-81
2021/01/09 00:07:17;;;;;;;20.20;13.10;;;;;;;9.48;36.59;102478.47;5035736;28;20064;-77
2021/01/09 00:09:42;;;;;;;17.67;12.37;;;;;;;9.44;36.46;102471.88;5053513;28;20025;-77
2021/01/09 00:12:12;;;;;;;21.77;12.93;;;;;;;9.37;36.52;102466.69;5053714;28;20025;-77
2021/01/09 00:14:38;;;;;;;18.25;12.27;;;;;;;9.43;36.63;102475.69;5053708;28;20494;-77
2021/01/09 00:17:04;;;;;;;18.70;12.03;;;;;;;9.41;36.45;102472.41;5053517;28;20437;-77
2021/01/09 00:19:30;;;;;;;21.20;13.13;;;;;;;9.41;36.70;102470.50;5053728;28;20025;-87
2021/01/09 00:21:57;;;;;;;19.70;11.57;;;;;;;9.41;36.21;102475.97;5053473;28;20480;-76
2021/01/09 00:24:23;;;;;;;20.03;12.47;;;;;;;9.36;36.45;102475.91;5053328;28;20021;-77
2021/01/09 00:26:48;;;;;;;14.93;10.53;;;;;;;9.34;36.96;102478.09;5053359;28;20029;-77
2021/01/09 00:29:14;;;;;;;18.73;10.77;;;;;;;9.35;36.79;102476.19;5053249;28;20045;-83
2021/01/09 00:31:40;;;;;;;20.33;11.27;;;;;;;9.36;36.76;102475.09;5053390;28;20460;-77
2021/01/09 00:34:06;;;;;;;16.97;11.03;;;;;;;9.34;36.49;102469.91;5053077;28;20025;-76
2021/01/09 00:36:32;;;;;;;18.47;10.37;;;;;;;9.34;36.64;102478.09;5053113;28;20491;-75
2021/01/09 00:38:58;;;;;;;15.20;10.97;;;;;;;9.31;36.67;102469.63;5052853;28;20058;-76
2021/01/09 00:41:31;;;;;;;15.17;10.33;;;;;;;9.26;36.48;102478.59;5052644;28;20064;-75
2021/01/09 00:43:57;;;;;;;18.47;11.80;;;;;;;9.26;36.55;102481.31;5053036;28;20100;-76
2021/01/09 00:46:24;;;;;;;15.07;9.90;;;;;;;9.23;36.91;102475.56;5052883;28;20036;-76
2021/01/09 00:48:50;;;;;;;15.93;8.83;;;;;;;9.19;36.86;102477.97;5035054;28;20450;-76
2021/01/09 00:51:16;;;;;;;13.73;8.77;;;;;;;9.18;36.52;102479.06;5052867;28;20029;-75
2021/01/09 00:53:42;;;;;;;15.30;9.10;;;;;;;9.19;36.63;102475.25;5035004;28;20101;-76
2021/01/09 00:56:08;;;;;;;12.60;8.17;;;;;;;9.21;36.43;102470.34;5052678;28;20035;-76
2021/01/09 00:58:34;;;;;;;15.20;9.07;;;;;;;9.20;36.66;102471.44;5052743;28;20490;-76
2021/01/09 01:01:01;;;;;;;14.57;8.33;;;;;;;9.16;36.86;102476.59;5052760;28;20036;-77
2021/01/09 01:03:27;;;;;;;14.10;9.20;;;;;;;9.18;36.57;102465.44;5052735;28;20246;-77
2021/01/09 01:05:53;;;;;;;12.47;8.27;;;;;;;9.12;36.91;102466.47;5052545;28;20033;-77
2021/01/09 01:08:19;;;;;;;19.53;8.90;;;;;;;9.07;36.95;102464.53;5053117;28;20447;-76
2021/01/09 01:10:46;;;;;;;12.93;8.57;;;;;;;9.10;36.91;102471.38;5052664;28;20116;-77
2021/01/09 01:13:11;;;;;;;13.20;8.07;;;;;;;9.08;37.09;102473.56;5052841;28;20036;-77
2021/01/09 01:15:37;;;;;;;13.37;9.63;;;;;;;9.06;36.49;102475.69;5052619;28;20112;-76
2021/01/09 01:18:03;;;;;;;13.57;8.40;;;;;;;9.05;36.73;102479.50;5034974;28;20029;-77
2021/01/09 01:20:28;;;;;;;13.90;8.90;;;;;;;9.06;36.88;102481.16;5052686;28;20108;-77
2021/01/09 01:22:54;;;;;;;13.67;8.27;;;;;;;9.07;36.77;102472.72;5052397;28;20115;-77
2021/01/09 01:25:19;;;;;;;11.47;7.97;;;;;;;9.03;36.69;102477.03;5052625;28;20044;-77
2021/01/09 01:27:46;;;;;;;14.60;8.70;;;;;;;9.05;36.72;102485.78;5053031;28;20111;-76
2021/01/09 01:30:12;;;;;;;15.73;8.27;;;;;;;9.03;36.72;102495.31;5052406;28;20052;-80
2021/01/09 01:32:37;;;;;;;13.87;8.03;;;;;;;8.99;36.88;102492.25;5034389;28;20032;-77
2021/01/09 01:35:04;;;;;;;13.47;7.83;;;;;;;9.06;36.90;102494.78;5052952;28;20538;-87
2021/01/09 01:37:29;;;;;;;14.63;8.07;;;;;;;9.02;36.90;102502.66;5056521;28;20025;-77
2021/01/09 01:39:55;;;;;;;13.43;7.80;;;;;;;9.02;37.01;102499.13;5056676;28;20021;-77
2021/01/09 01:42:20;;;;;;;12.17;8.47;;;;;;;9.00;36.78;102495.84;5056713;28;20032;-88
2021/01/09 01:44:46;;;;;;;12.30;8.20;;;;;;;9.03;36.60;102492.59;5056653;28;20021;-77
2021/01/09 01:47:17;;;;;;;14.23;7.60;;;;;;;8.98;36.62;102490.63;5056374;28;20357;-78
2021/01/09 01:49:45;;;;;;;13.83;9.10;;;;;;;9.02;36.65;102494.50;5056326;28;20500;-77
2021/01/09 01:52:13;;;;;;;15.17;8.70;;;;;;;9.00;36.51;102493.94;5056477;28;20028;-77
2021/01/09 01:54:42;;;;;;;14.03;8.67;;;;;;;8.99;36.70;102496.91;5038704;28;20067;-88
2021/01/09 01:57:11;;;;;;;10.52;7.20;;;;;;;8.97;36.76;102490.88;5056257;28;20096;-87
2021/01/09 01:59:37;;;;;;;14.00;7.87;;;;;;;9.00;36.77;102496.66;5056153;28;20031;-77
2021/01/09 02:02:06;;;;;;;15.10;8.10;;;;;;;8.99;36.80;102499.63;5038101;28;20445;-76
2021/01/09 02:04:32;;;;;;;15.30;8.35;;;;;;;8.98;36.94;102500.72;5056145;28;20057;-77
2021/01/09 02:07:01;;;;;;;10.73;7.30;;;;;;;8.98;36.85;102498.81;5056230;28;20080;-77
2021/01/09 02:09:29;;;;;;;11.68;7.88;;;;;;;8.88;36.92;102488.63;5056069;28;20067;-77
2021/01/09 02:12:25;;;;;;;10.23;7.47;;;;;;;8.84;36.82;102490.25;5056199;28;20052;-77
2021/01/09 02:14:55;;;;;;;14.83;7.40;;;;;;;8.93;36.97;102484.31;5055763;28;20083;-77
2021/01/09 02:17:21;;;;;;;12.35;7.85;;;;;;;8.83;36.95;102477.69;5055877;28;20021;-76
2021/01/09 02:19:48;;;;;;;10.57;7.27;;;;;;;8.88;36.99;102479.63;5037987;28;20479;-84
2021/01/09 02:22:18;;;;;;;12.90;7.70;;;;;;;8.79;37.34;102494.81;5055715;28;20079;-76
2021/01/09 02:24:45;;;;;;;18.02;8.15;;;;;;;8.88;37.00;102494.09;5055743;28;20024;-77
2021/01/09 02:27:12;;;;;;;13.27;7.63;;;;;;;8.92;37.09;102490.84;5055678;28;20101;-77
2021/01/09 02:30:10;;;;;;;15.13;7.67;;;;;;;8.89;36.96;102494.91;5055539;28;20120;-77
2021/01/09 02:32:50;;;;;;;11.87;7.43;;;;;;;8.93;36.81;102492.50;5048497;28;20381;-77
2021/01/09 02:35:17;;;;;;;11.47;6.90;;;;;;;8.98;36.77;102489.81;5037616;28;20025;-88
2021/01/09 02:37:44;;;;;;;13.73;8.30;;;;;;;8.88;36.79;102490.53;5055495;28;20060;-77
2021/01/09 02:40:15;;;;;;;13.27;7.53;;;;;;;8.92;36.77;102486.22;5055681;28;20021;-87
2021/01/09 02:42:41;;;;;;;13.60;7.13;;;;;;;8.93;37.00;102493.31;5055376;28;20025;-85
2021/01/09 02:45:07;;;;;;;10.33;6.77;;;;;;;8.95;37.04;102501.25;5055438;28;20025;-76
2021/01/09 02:47:33;;;;;;;12.43;7.80;;;;;;;8.90;36.75;102494.66;5054881;28;20032;-77
2021/01/09 02:49:59;;;;;;;14.10;7.40;;;;;;;8.86;36.94;102500.91;5055353;28;20025;-76
2021/01/09 02:52:24;;;;;;;12.00;6.37;;;;;;;8.83;36.76;102499.47;5037520;28;20112;-87
2021/01/09 02:54:50;;;;;;;13.07;6.80;;;;;;;8.77;36.92;102500.53;5037042;28;20502;-77
2021/01/09 02:57:15;;;;;;;13.50;6.93;;;;;;;8.71;37.38;102511.66;5055100;28;20025;-76
2021/01/09 02:59:41;;;;;;;11.77;7.37;;;;;;;8.69;37.29;102503.75;5037546;28;20029;-77
2021/01/09 03:02:06;;;;;;;14.20;8.43;;;;;;;8.67;37.38;102500.44;5055116;28;20025;-77
2021/01/09 03:04:32;;;;;;;13.63;8.00;;;;;;;8.68;37.51;102501.25;5037270;28;20112;-76
2021/01/09 03:06:58;;;;;;;13.03;7.37;;;;;;;8.71;37.22;102498.84;5054906;28;20028;-77
2021/01/09 03:09:24;;;;;;;13.63;6.87;;;;;;;8.69;36.98;102501.00;5055002;28;20468;-77
2021/01/09 03:11:49;;;;;;;12.93;7.63;;;;;;;8.66;37.17;102512.41;5037050;28;20025;-77
2021/01/09 03:14:15;;;;;;;13.50;8.13;;;;;;;8.62;37.37;102508.56;5054694;28;20071;-77
2021/01/09 03:16:40;;;;;;;10.60;7.07;;;;;;;8.60;37.48;102507.97;5036899;28;20028;-77
2021/01/09 03:19:06;;;;;;;17.47;9.67;;;;;;;8.55;37.37;102506.03;5054779;28;20100;-76
2021/01/09 03:21:31;;;;;;;12.83;7.20;;;;;;;8.52;37.59;102509.25;5054861;28;20032;-77
2021/01/09 03:23:57;;;;;;;22.77;9.50;;;;;;;8.59;36.99;102509.06;5054617;28;20392;-77
2021/01/09 03:26:23;;;;;;;36.97;15.63;;;;;;;8.53;37.44;102515.53;5054620;28;20063;-77
2021/01/09 03:28:48;;;;;;;28.37;12.83;;;;;;;8.51;37.35;102506.78;5054407;28;20033;-77
2021/01/09 03:31:14;;;;;;;28.90;12.30;;;;;;;8.44;37.45;102511.63;5054376;28;20021;-76
2021/01/09 03:33:40;;;;;;;60.53;27.80;;;;;;;8.49;37.20;102514.41;5054579;28;20107;-77
2021/01/09 03:36:06;;;;;;;31.73;14.07;;;;;;;8.44;37.29;102509.72;5054322;28;20025;-88
2021/01/09 03:38:32;;;;;;;49.40;21.00;;;;;;;8.41;37.39;102509.41;5054348;28;20083;-76
2021/01/09 03:40:57;;;;;;;34.33;13.77;;;;;;;8.40;37.81;102511.31;5054252;28;20020;-77
2021/01/09 03:43:23;;;;;;;22.87;12.23;;;;;;;8.29;37.57;102510.34;5053353;28;20103;-77
2021/01/09 03:45:48;;;;;;;28.40;13.33;;;;;;;8.29;37.54;102510.34;5053695;28;20036;-88
2021/01/09 03:48:14;;;;;;;93.40;36.83;;;;;;;8.26;38.15;102515.47;5054204;28;20025;-80
2021/01/09 03:50:39;;;;;;;73.50;30.37;;;;;;;8.19;38.01;102507.50;5054078;28;20021;-76
2021/01/09 03:53:05;;;;;;;23.13;11.57;;;;;;;8.15;38.10;102500.06;5036256;28;20361;-87
2021/01/09 03:55:31;;;;;;;27.43;14.73;;;;;;;8.12;38.04;102506.88;5054095;28;20096;-76
2021/01/09 03:57:56;;;;;;;60.20;24.07;;;;;;;8.06;37.82;102502.44;5053077;28;20021;-76
2021/01/09 04:00:22;;;;;;;42.47;16.93;;;;;;;7.99;37.96;102499.06;5054068;28;20024;-81
2021/01/09 04:02:48;;;;;;;31.77;14.33;;;;;;;8.11;37.95;102512.56;5053892;28;20029;-76
2021/01/09 04:05:13;;;;;;;30.97;13.10;;;;;;;8.09;37.86;102514.72;5053883;28;20037;-87
2021/01/09 04:07:39;;;;;;;254.57;82.97;;;;;;;8.13;37.88;102513.94;5053560;28;20467;-77
2021/01/09 04:10:05;;;;;;;121.93;43.03;;;;;;;8.15;37.65;102511.78;5053707;28;20029;-77
2021/01/09 04:12:31;;;;;;;176.63;55.43;;;;;;;8.16;37.62;102510.75;5053472;28;20025;-77
2021/01/09 04:14:57;;;;;;;81.93;30.50;;;;;;;8.19;37.89;102515.66;5053583;28;20025;-77
2021/01/09 04:17:22;;;;;;;227.07;75.97;;;;;;;8.12;38.14;102508.75;5053663;28;20021;-76
2021/01/09 04:19:48;;;;;;;116.63;40.93;;;;;;;8.19;38.08;102499.31;5053427;28;20025;-77
2021/01/09 04:22:14;;;;;;;359.77;116.60;;;;;;;8.17;38.15;102506.13;5053425;28;20032;-76
2021/01/09 04:24:39;;;;;;;64.57;24.23;;;;;;;8.15;38.10;102505.53;5053413;28;20537;-76
2021/01/09 04:27:06;;;;;;;193.33;66.70;;;;;;;8.13;37.80;102496.78;5053179;28;20356;-77
2021/01/09 04:29:32;;;;;;;214.23;73.13;;;;;;;8.16;38.12;102502.56;5053323;28;20406;-76
2021/01/09 04:31:58;;;;;;;223.27;76.33;;;;;;;8.14;38.12;102506.59;5053301;28;20096;-79
2021/01/09 04:34:25;;;;;;;209.40;71.63;;;;;;;8.12;38.06;102512.31;5053483;28;20430;-77
2021/01/09 04:36:52;;;;;;;23.07;14.77;;;;;;;8.12;38.04;102503.31;5053083;28;20029;-76
2021/01/09 04:39:18;;;;;;;32.10;25.10;;;;;;;8.11;38.03;102507.13;5053193;28;20049;-76
2021/01/09 04:41:44;;;;;;;17.40;12.23;;;;;;;8.13;37.81;102511.22;5053037;28;20021;-77
2021/01/09 04:44:11;;;;;;;34.17;23.03;;;;;;;8.05;38.22;102509.78;5053003;28;20074;-77
2021/01/09 04:46:52;;;;;;;32.67;19.33;;;;;;;8.02;37.86;102509.47;5052914;28;20568;-76
2021/01/09 04:49:22;;;;;;;28.73;20.83;;;;;;;7.87;38.32;102510.09;5053049;28;20410;-77
2021/01/09 04:51:49;;;;;;;16.33;10.47;;;;;;;8.07;37.92;102518.50;5052964;28;20021;-77
2021/01/09 04:54:17;;;;;;;14.13;10.37;;;;;;;8.03;37.94;102516.56;5052837;28;20475;-76
2021/01/09 04:56:44;;;;;;;20.27;15.27;;;;;;;7.97;38.15;102518.38;5052678;28;20108;-76
2021/01/09 04:59:12;;;;;;;16.53;11.23;;;;;;;7.92;38.32;102517.47;5052811;28;20028;-86
2021/01/09 05:01:40;;;;;;;11.60;8.03;;;;;;;7.86;38.13;102513.88;5035039;28;20021;-77
2021/01/09 05:04:06;;;;;;;13.43;9.40;;;;;;;7.88;37.94;102510.91;5052397;28;20434;-76
2021/01/09 05:06:31;;;;;;;12.30;7.60;;;;;;;7.92;37.87;102514.75;5052675;28;20029;-77
2021/01/09 05:08:57;;;;;;;14.87;9.67;;;;;;;7.91;37.84;102522.09;5034431;28;20360;-76
2021/01/09 05:11:23;;;;;;;20.83;14.33;;;;;;;7.88;38.00;102521.78;5052723;28;20103;-76
2021/01/09 05:13:49;;;;;;;12.53;9.53;;;;;;;7.92;37.96;102509.31;5052714;28;20503;-76
2021/01/09 05:16:15;;;;;;;14.30;8.17;;;;;;;7.91;38.01;102510.41;5052507;28;20071;-76
2021/01/09 05:18:42;;;;;;;14.17;9.03;;;;;;;7.88;37.89;102508.19;5052551;28;20044;-78
2021/01/09 05:21:11;;;;;;;15.30;8.83;;;;;;;7.84;38.03;102501.59;5052380;28;20036;-77
2021/01/09 05:23:51;;;;;;;15.05;8.50;;;;;;;7.85;38.00;102508.66;5052636;28;20095;-80
2021/01/09 05:26:18;;;;;;;13.63;9.18;;;;;;;7.78;38.04;102514.28;5052528;28;20029;-77
2021/01/09 05:28:46;;;;;;;13.27;7.40;;;;;;;7.74;38.01;102511.25;5052367;28;20040;-77
2021/01/09 05:31:13;;;;;;;13.67;7.97;;;;;;;7.70;38.16;102515.53;5052491;28;20029;-76
2021/01/09 05:33:40;;;;;;;14.30;8.33;;;;;;;7.68;38.23;102514.97;5052465;28;20036;-77
2021/01/09 05:36:06;;;;;;;13.23;7.90;;;;;;;7.74;38.04;102521.31;5052316;28;20091;-78
2021/01/09 05:38:37;;;;;;;14.70;8.37;;;;;;;7.71;37.83;102521.84;5052379;28;20056;-76
2021/01/09 05:41:10;;;;;;;14.93;8.03;;;;;;;7.78;38.10;102517.00;5052424;28;20029;-77
2021/01/09 05:43:37;;;;;;;14.43;8.23;;;;;;;7.77;38.24;102529.78;5052393;28;20056;-77
2021/01/09 05:46:04;;;;;;;12.93;8.03;;;;;;;7.78;37.93;102534.19;5034377;28;20021;-75
2021/01/09 05:48:31;;;;;;;14.03;8.50;;;;;;;7.80;37.86;102533.94;5052446;28;20087;-80
2021/01/09 05:50:59;;;;;;;14.63;8.10;;;;;;;7.75;38.05;102537.41;5034476;28;20087;-77
2021/01/09 05:53:42;;;;;;;13.53;9.17;;;;;;;7.67;38.02;102539.72;5051947;28;20064;-77
2021/01/09 05:56:10;;;;;;;15.20;9.20;;;;;;;7.75;38.23;102534.69;5052193;28;20029;-76
2021/01/09 05:58:36;;;;;;;12.10;7.63;;;;;;;7.75;37.68;102542.84;5034352;28;20503;-76
2021/01/09 06:01:12;;;;;;;12.07;8.13;;;;;;;7.70;37.81;102544.66;5034872;28;20029;-79
2021/01/09 06:03:44;;;;;;;11.67;8.13;;;;;;;7.71;37.80;102544.44;5052466;28;20392;-77
2021/01/09 06:06:23;;;;;;;14.60;8.23;;;;;;;7.70;37.96;102541.94;5052246;28;20043;-77
2021/01/09 06:08:59;;;;;;;11.10;7.57;;;;;;;7.69;38.12;102543.00;5052444;28;20036;-77
2021/01/09 06:11:36;;;;;;;13.33;7.47;;;;;;;7.68;38.05;102557.69;5052337;28;20063;-88
2021/01/09 06:14:07;;;;;;;11.43;7.70;;;;;;;7.68;37.85;102555.78;5052160;28;20143;-77
2021/01/09 06:16:35;;;;;;;12.00;7.20;;;;;;;7.61;37.97;102541.53;5052128;28;20072;-81
2021/01/09 06:19:01;;;;;;;10.97;6.97;;;;;;;7.69;37.99;102557.44;5034109;28;20098;-75
2021/01/09 06:21:28;;;;;;;9.50;7.07;;;;;;;7.72;37.75;102551.50;5053006;28;20033;-76
2021/01/09 06:23:55;;;;;;;11.00;7.43;;;;;;;7.72;38.30;102551.50;5055733;28;20033;-76
2021/01/09 06:26:23;;;;;;;16.13;7.63;;;;;;;7.72;37.82;102550.69;5055654;28;20227;-75
2021/01/09 06:28:52;;;;;;;17.43;9.83;;;;;;;7.73;38.06;102550.44;5055275;28;20052;-75
2021/01/09 06:31:22;;;;;;;14.75;8.27;;;;;;;7.72;37.98;102553.41;5055572;28;20029;-75
2021/01/09 06:33:50;;;;;;;15.03;8.20;;;;;;;7.68;37.96;102558.50;5055401;28;20025;-77
2021/01/09 06:36:20;;;;;;;16.73;8.63;;;;;;;7.60;37.95;102558.94;5037418;28;20056;-76
2021/01/09 06:38:49;;;;;;;12.27;8.38;;;;;;;7.62;37.93;102555.97;5055347;28;20482;-75
2021/01/09 06:41:16;;;;;;;14.07;8.93;;;;;;;7.70;37.88;102563.69;5055317;28;20033;-75
2021/01/09 06:43:48;;;;;;;13.83;10.40;;;;;;;7.64;37.79;102562.81;5055301;28;20082;-76
2021/01/09 06:46:27;;;;;;;13.23;10.30;;;;;;;7.50;37.88;102569.66;5037397;28;20020;-77
2021/01/09 06:48:54;;;;;;;16.50;9.73;;;;;;;7.52;38.15;102567.53;5055312;28;20059;-76
2021/01/09 06:51:35;;;;;;;15.87;10.17;;;;;;;7.34;38.05;102563.16;5037388;28;20033;-77
2021/01/09 06:54:15;;;;;;;14.00;9.23;;;;;;;7.12;38.71;102573.94;5055355;28;20082;-76
2021/01/09 06:56:45;;;;;;;15.83;9.50;;;;;;;7.06;38.82;102574.09;5037216;28;20402;-76
2021/01/09 06:59:35;;;;;;;12.53;8.60;;;;;;;7.06;39.01;102569.47;5054827;28;20041;-77
2021/01/09 07:02:24;;;;;;;15.68;8.82;;;;;;;6.91;39.38;102563.75;5037307;28;20393;-76
2021/01/09 07:04:50;;;;;;;21.85;9.13;;;;;;;7.01;39.10;102571.25;5036886;28;20060;-76
2021/01/09 07:07:36;;;;;;;12.50;8.27;;;;;;;7.04;39.03;102565.34;5037102;28;20537;-77
2021/01/09 07:10:11;;;;;;;15.67;9.33;;;;;;;7.09;38.78;102565.44;5037036;28;20032;-77
2021/01/09 07:12:40;;;;;;;14.43;8.60;;;;;;;7.23;38.64;102564.03;5054899;28;20029;-76
2021/01/09 07:15:10;;;;;;;13.80;9.03;;;;;;;7.02;38.73;102562.84;5054544;28;20071;-76
2021/01/09 07:17:38;;;;;;;16.47;8.10;;;;;;;6.91;39.02;102561.88;5054771;28;20502;-77
2021/01/09 07:20:09;;;;;;;13.80;10.40;;;;;;;7.16;38.50;102561.47;5054689;28;20025;-78
2021/01/09 07:22:41;;;;;;;15.20;8.60;;;;;;;7.19;38.68;102566.44;5054521;28;20383;-77
2021/01/09 07:25:10;;;;;;;14.30;8.50;;;;;;;7.16;38.78;102569.63;5054785;28;20109;-77
2021/01/09 07:27:39;;;;;;;14.47;8.73;;;;;;;7.21;38.53;102568.91;5054501;28;20468;-88
2021/01/09 07:30:12;;;;;;;;;;;;;;;7.06;39.24;102566.75;5054638;28;20500;-76
2021/01/09 07:32:46;;;;;;;14.40;7.77;;;;;;;7.14;38.83;102563.63;5053174;28;19917;-77
2021/01/09 07:35:17;;;;;;;22.17;8.87;;;;;;;7.22;38.76;102565.94;5054425;28;20484;-76
2021/01/09 07:37:43;;;;;;;14.00;7.87;;;;;;;7.27;38.23;102575.28;5054377;28;20029;-77
2021/01/09 07:40:18;;;;;;;16.90;8.87;;;;;;;7.15;38.71;102570.72;5036479;28;20435;-76
2021/01/09 07:42:45;;;;;;;12.20;9.57;;;;;;;7.17;38.56;102574.00;5036250;28;20372;-75
2021/01/09 07:45:15;;;;;;;18.33;9.20;;;;;;;7.14;38.54;102574.50;5054192;28;20017;-75
2021/01/09 07:47:41;;;;;;;;;;;;;;;7.00;38.64;102577.78;5054431;28;20028;-76
2021/01/09 07:50:09;;;;;;;12.47;9.10;;;;;;;6.90;39.09;102581.97;5036052;28;19912;-76
2021/01/09 07:52:35;;;;;;;20.57;11.50;;;;;;;6.88;38.93;102581.38;5036070;28;20025;-77
2021/01/09 07:55:02;;;;;;;13.87;9.30;;;;;;;6.84;38.96;102584.81;5053835;28;20017;-75
2021/01/09 07:57:30;;;;;;;15.17;9.40;;;;;;;6.82;39.33;102584.25;5036101;28;20017;-87
2021/01/09 07:59:56;;;;;;;15.67;8.83;;;;;;;6.80;38.96;102587.22;5053703;28;20468;-82
2021/01/09 08:02:26;;;;;;;17.03;8.93;;;;;;;6.77;39.41;102584.97;5053798;28;20035;-76
2021/01/09 08:05:01;;;;;;;15.87;11.03;;;;;;;6.47;40.10;102584.34;5053864;28;20025;-77
2021/01/09 08:07:27;;;;;;;15.77;9.43;;;;;;;6.68;39.44;102586.41;5035870;28;20063;-87
2021/01/09 08:09:54;;;;;;;11.97;8.17;;;;;;;6.55;40.60;102582.09;5052614;28;20100;-75
2021/01/09 08:12:28;;;;;;;13.07;9.40;;;;;;;6.53;40.64;102588.84;5035703;28;20021;-77
2021/01/09 08:14:58;;;;;;;15.23;9.00;;;;;;;6.46;40.86;102599.00;5053640;28;20468;-77
2021/01/09 08:17:23;;;;;;;15.63;9.75;;;;;;;6.70;40.23;102588.88;5053530;28;20148;-80
2021/01/09 08:19:49;;;;;;;19.97;9.87;;;;;;;6.81;39.94;102586.13;5036234;28;20075;-81
2021/01/09 08:22:15;;;;;;;17.87;12.30;;;;;;;7.05;39.44;102586.03;5035925;28;20027;-84
2021/01/09 08:24:41;;;;;;;16.50;10.40;;;;;;;7.07;39.54;102581.97;5036049;28;20435;-79
2021/01/09 08:27:07;;;;;;;17.47;12.50;;;;;;;7.02;39.53;102583.78;5036243;28;20078;-90
2021/01/09 08:29:33;;;;;;;14.87;9.70;;;;;;;7.11;39.57;102583.16;5022829;28;20045;-80
2021/01/09 08:31:59;;;;;;;14.50;9.60;;;;;;;7.08;39.62;102585.53;5012462;28;20084;-80
2021/01/09 08:34:26;;;;;;;16.37;9.93;;;;;;;6.95;39.95;102589.38;5012509;28;20477;-81
2021/01/09 08:36:57;;;;;;;13.20;9.13;;;;;;;6.96;39.92;102593.75;5013690;28;20022;-80
2021/01/09 08:39:24;;;;;;;15.47;11.13;;;;;;;7.06;39.75;102603.97;5012984;28;20485;-81
2021/01/09 08:41:51;;;;;;;19.57;9.93;;;;;;;6.97;39.82;102597.28;5010474;28;20026;-80
2021/01/09 08:44:18;;;;;;;14.53;10.73;;;;;;;7.02;40.16;102602.81;5011371;28;20037;-79
2021/01/09 08:46:45;;;;;;;16.27;10.50;;;;;;;6.93;40.60;102610.53;5010512;28;20088;-81
2021/01/09 08:49:27;;;;;;;18.50;10.37;;;;;;;6.76;40.83;102605.06;5011934;28;20048;-92
2021/01/09 08:52:04;;;;;;;18.40;10.87;;;;;;;6.92;40.50;102612.44;5012023;28;20030;-80
2021/01/09 08:54:30;;;;;;;20.00;12.60;;;;;;;7.05;40.14;102603.16;5011006;28;20022;-81
2021/01/09 08:56:57;;;;;;;20.90;12.63;;;;;;;7.15;40.07;102605.22;5009929;28;20040;-88
2021/01/09 08:59:23;;;;;;;38.10;21.97;;;;;;;7.21;39.87;102596.94;4992170;28;20246;-78
2021/01/09 09:01:56;;;;;;;14.90;9.10;;;;;;;6.90;40.64;102605.59;5005561;28;20040;-78
2021/01/09 09:04:22;;;;;;;20.83;13.57;;;;;;;7.03;40.53;102610.75;5000062;28;20026;-79
2021/01/09 09:07:18;;;;;;;15.57;9.30;;;;;;;7.03;40.37;102607.16;5009410;28;20030;-82
2021/01/09 09:09:43;;;;;;;18.07;11.40;;;;;;;6.87;41.03;102606.88;4989411;28;20095;-80
2021/01/09 09:12:10;;;;;;;13.73;8.20;;;;;;;6.92;40.99;102608.88;5009982;28;20025;-78
2021/01/09 09:14:36;;;;;;;13.20;9.30;;;;;;;6.81;41.48;102610.59;4999124;28;20033;-79
2021/01/09 09:17:04;;;;;;;26.63;17.80;;;;;;;6.93;41.08;102621.41;5001953;28;20030;-78
2021/01/09 09:19:37;;;;;;;32.27;20.93;;;;;;;7.00;41.22;102621.25;4996009;28;20120;-79
2021/01/09 09:22:03;;;;;;;35.77;24.50;;;;;;;7.09;41.24;102626.06;4996241;28;20073;-78
2021/01/09 09:24:41;;;;;;;33.23;23.73;;;;;;;7.12;41.13;102636.47;4980875;28;20089;-80
2021/01/09 09:27:21;;;;;;;27.20;18.10;;;;;;;7.05;41.35;102643.94;4974018;28;20470;-79
2021/01/09 09:29:47;;;;;;;19.03;10.10;;;;;;;7.21;40.74;102642.31;4996126;28;20404;-78
2021/01/09 09:32:26;;;;;;;14.97;10.57;;;;;;;7.04;41.32;102639.56;4995148;28;20030;-78
2021/01/09 09:34:54;;;;;;;18.85;11.77;;;;;;;7.10;41.21;102640.47;5013038;28;20026;-81
2021/01/09 09:37:19;;;;;;;18.23;11.73;;;;;;;7.36;40.84;102636.34;4995195;28;20041;-80
2021/01/09 09:39:45;;;;;;;15.50;10.43;;;;;;;7.31;40.77;102637.06;5010063;28;20018;-83
2021/01/09 09:42:11;;;;;;;13.63;9.17;;;;;;;7.17;41.29;102633.81;5020895;28;20035;-78
2021/01/09 09:44:43;;;;;;;15.63;10.77;;;;;;;7.34;40.95;102633.88;5014856;28;20476;-78
2021/01/09 09:47:28;;;;;;;15.83;9.83;;;;;;;7.30;41.30;102642.75;5015037;28;20626;-77
2021/01/09 09:49:59;;;;;;;17.87;11.47;;;;;;;7.29;41.38;102644.66;5015087;28;20026;-78
2021/01/09 09:52:25;;;;;;;19.70;11.63;;;;;;;7.34;41.17;102641.19;5013858;28;20030;-81
2021/01/09 09:55:04;;;;;;;24.03;13.17;;;;;;;7.12;41.96;102646.50;5013287;28;20033;-78
2021/01/09 09:57:30;;;;;;;19.70;9.40;;;;;;;6.85;42.68;102654.41;5015758;28;20545;-78
2021/01/09 10:00:06;;;;;;;14.87;10.13;;;;;;;7.50;41.57;102665.69;5018038;28;20103;-79
2021/01/09 10:02:32;;;;;;;14.47;9.80;;;;;;;6.98;43.14;102662.28;5032714;28;20104;-79
2021/01/09 10:04:57;;;;;;;69.33;44.83;;;;;;;7.69;41.36;102662.72;5014102;28;20124;-80
2021/01/09 10:07:23;;;;;;;16.57;10.10;;;;;;;7.45;41.81;102667.50;5016806;28;20068;-78
2021/01/09 10:09:49;;;;;;;27.80;14.97;;;;;;;7.56;41.99;102669.34;5014699;28;20049;-77
2021/01/09 10:12:15;;;;;;;14.70;10.30;;;;;;;7.08;43.87;102657.03;5018539;28;20021;-78
2021/01/09 10:14:41;;;;;;;13.83;10.37;;;;;;;7.19;43.54;102664.31;5036107;28;20083;-79
2021/01/09 10:17:13;;;;;;;19.37;10.50;;;;;;;7.22;43.53;102668.44;5009580;28;20056;-78
2021/01/09 10:19:39;;;;;;;16.23;11.37;;;;;;;7.74;42.22;102671.00;4998628;28;20108;-79
2021/01/09 10:22:04;;;;;;;14.97;10.47;;;;;;;7.88;42.10;102658.72;4998699;28;20440;-79
2021/01/09 10:24:30;;;;;;;14.37;10.23;;;;;;;7.96;42.15;102657.47;5016027;28;20057;-78
2021/01/09 10:26:55;;;;;;;16.77;11.73;;;;;;;8.24;41.51;102642.91;4998482;28;20026;-78
2021/01/09 10:29:21;;;;;;;18.47;10.27;;;;;;;8.15;41.85;102647.94;4998138;28;20046;-78
2021/01/09 10:31:46;;;;;;;13.97;9.23;;;;;;;8.08;42.07;102647.28;4998362;28;20050;-79
2021/01/09 10:34:12;;;;;;;15.83;8.63;;;;;;;8.19;41.83;102638.22;4998381;28;20476;-79
2021/01/09 10:36:39;;;;;;;16.00;9.77;;;;;;;8.36;41.40;102627.31;4998264;28;20033;-79
2021/01/09 10:39:06;;;;;;;16.53;9.20;;;;;;;8.56;41.16;102626.75;4998236;28;20093;-78
2021/01/09 10:41:31;;;;;;;17.53;10.13;;;;;;;8.24;42.18;102624.69;5001355;28;20029;-79
2021/01/09 10:43:57;;;;;;;12.47;9.03;;;;;;;8.39;41.93;102615.06;5028709;28;20365;-79
2021/01/09 10:46:25;;;;;;;14.23;9.90;;;;;;;8.46;41.99;102638.31;5037556;28;20379;-78
2021/01/09 10:48:51;;;;;;;14.23;9.30;;;;;;;8.39;41.84;102640.44;5031533;28;20029;-79
2021/01/09 10:51:19;;;;;;;16.43;9.40;;;;;;;8.76;41.23;102629.69;5044819;28;20052;-80
2021/01/09 10:53:45;;;;;;;14.60;9.30;;;;;;;8.86;40.92;102627.13;5030497;28;20098;-78
2021/01/09 10:56:11;;;;;;;20.07;15.47;;;;;;;8.69;41.51;102618.19;5043573;28;20048;-78
2021/01/09 10:58:37;;;;;;;15.60;10.43;;;;;;;8.97;41.01;102627.22;5017270;28;20455;-79
2021/01/09 11:01:06;;;;;;;15.83;10.03;;;;;;;8.56;42.16;102627.56;5035012;28;20022;-78
2021/01/09 11:03:33;;;;;;;26.40;16.92;;;;;;;8.90;41.53;102625.50;5035097;28;20392;-79
2021/01/09 11:05:59;;;;;;;14.73;9.70;;;;;;;8.65;42.08;102632.56;5035098;28;20258;-80
2021/01/09 11:08:26;;;;;;;17.37;12.73;;;;;;;8.72;41.79;102644.94;5016645;28;20021;-79
2021/01/09 11:10:52;;;;;;;13.37;8.40;;;;;;;8.95;41.53;102659.38;5029054;28;20037;-80
2021/01/09 11:13:18;;;;;;;11.10;7.93;;;;;;;9.00;41.49;102648.53;5011373;28;20049;-80
2021/01/09 11:15:45;;;;;;;45.10;27.93;;;;;;;9.18;41.08;102653.63;5020306;28;20443;-80
2021/01/09 11:18:10;;;;;;;13.37;8.93;;;;;;;9.43;40.57;102644.84;5036902;28;20055;-80
2021/01/09 11:20:36;;;;;;;15.77;8.67;;;;;;;9.22;40.99;102643.00;5054791;28;20052;-79
2021/01/09 11:23:01;;;;;;;63.07;36.97;;;;;;;9.32;40.72;102645.84;5054764;28;20057;-81
2021/01/09 11:25:27;;;;;;;15.10;10.70;;;;;;;9.58;40.35;102634.06;5053980;28;20040;-77